createdAt,value
2022-10-06T00:03:11.810Z,15.30
2022-10-06T00:13:34.158Z,15.30
2022-10-06T00:23:58.031Z,15.20
2022-10-06T00:34:19.335Z,15.40
2022-10-06T00:44:42.301Z,15.60
2022-10-06T00:55:04.176Z,16.00
2022-10-06T01:05:31.348Z,16.30
2022-10-06T01:15:57.359Z,16.60
2022-10-06T01:26:24.696Z,16.80
2022-10-06T01:36:46.774Z,16.60
2022-10-06T01:47:10.528Z,16.80
2022-10-06T01:57:32.273Z,16.40
2022-10-06T02:07:55.270Z,16.30
2022-10-06T02:18:17.237Z,16.20
2022-10-06T02:28:40.043Z,16.10
2022-10-06T02:39:04.241Z,16.00
2022-10-06T02:49:27.005Z,16.00
2022-10-06T02:59:48.915Z,16.10
2022-10-06T03:10:11.973Z,16.00
2022-10-06T03:20:33.503Z,16.00
2022-10-06T03:31:02.712Z,16.30
2022-10-06T03:41:27.019Z,16.30
2022-10-06T03:51:50.276Z,16.30
2022-10-06T04:02:18.327Z,16.30
2022-10-06T04:12:42.676Z,16.10
2022-10-06T04:23:05.418Z,16.50
2022-10-06T04:33:30.550Z,16.80
2022-10-06T04:43:52.361Z,17.20
2022-10-06T04:54:15.885Z,16.90
2022-10-06T05:04:37.712Z,16.70
2022-10-06T05:15:00.794Z,16.50
2022-10-06T05:25:22.519Z,16.40
2022-10-06T05:35:53.174Z,16.10
2022-10-06T05:46:20.348Z,16.00
2022-10-06T05:56:44.152Z,16.00
2022-10-06T06:07:05.955Z,15.70
2022-10-06T06:17:32.015Z,15.40
2022-10-06T06:27:56.211Z,15.60
2022-10-06T06:38:19.494Z,15.80
2022-10-06T06:48:42.180Z,15.90
2022-10-06T06:59:08.892Z,16.10
2022-10-06T07:09:30.408Z,15.80
2022-10-06T07:20:27.362Z,16.00
2022-10-06T07:30:49.100Z,15.90
2022-10-06T07:41:20.245Z,15.90
2022-10-06T07:51:46.881Z,15.80
2022-10-06T08:02:10.393Z,16.20
2022-10-06T08:12:37.358Z,16.30
2022-10-06T08:23:00.321Z,16.70
2022-10-06T08:33:21.918Z,16.30
2022-10-06T08:43:47.535Z,16.90
2022-10-06T08:54:15.040Z,17.00
2022-10-06T09:04:37.846Z,17.60
2022-10-06T09:15:09.724Z,17.50
2022-10-06T09:25:33.340Z,17.30
2022-10-06T09:36:08.951Z,17.00
2022-10-06T09:46:34.393Z,18.20
2022-10-06T09:56:56.963Z,17.90
2022-10-06T10:07:24.918Z,17.40
2022-10-06T10:17:50.242Z,18.10
2022-10-06T10:28:23.998Z,19.10
2022-10-06T10:38:47.327Z,18.70
2022-10-06T10:49:14.198Z,18.60
2022-10-06T10:59:42.833Z,18.40
2022-10-06T11:10:12.949Z,18.40
2022-10-06T11:20:46.937Z,18.50
2022-10-06T11:31:24.176Z,19.10
2022-10-06T11:41:51.111Z,19.60
2022-10-06T11:52:52.503Z,18.70
2022-10-06T12:03:49.960Z,18.50
2022-10-06T12:16:13.825Z,18.80
2022-10-06T12:25:18.921Z,18.90
2022-10-06T12:35:41.727Z,19.30
2022-10-06T12:46:05.567Z,19.40
2022-10-06T12:56:31.869Z,19.40
2022-10-06T13:06:53.226Z,19.20
2022-10-06T13:17:16.132Z,19.10
2022-10-06T13:27:37.657Z,19.30
2022-10-06T13:38:02.651Z,18.90
2022-10-06T13:48:28.507Z,19.00
2022-10-06T13:58:51.243Z,18.80
2022-10-06T14:09:13.244Z,19.00
2022-10-06T14:19:39.026Z,18.70
2022-10-06T14:30:00.683Z,19.00
2022-10-06T14:40:25.377Z,18.70
2022-10-06T14:50:47.119Z,19.00
2022-10-06T15:01:16.749Z,19.00
2022-10-06T15:11:38.949Z,18.60
2022-10-06T15:22:02.581Z,18.50
2022-10-06T15:43:36.672Z,17.90
2022-10-06T15:53:59.072Z,17.40
2022-10-06T16:04:30.502Z,17.20
2022-10-06T16:14:52.573Z,16.70
2022-10-06T16:25:15.514Z,16.20
2022-10-06T16:35:37.330Z,15.60
2022-10-06T16:46:02.524Z,15.20
2022-10-06T16:56:26.719Z,14.70
2022-10-06T17:06:51.192Z,14.20
2022-10-06T17:17:12.708Z,13.70
2022-10-06T17:27:41.822Z,13.40
2022-10-06T17:38:04.598Z,13.20
2022-10-06T17:48:29.448Z,12.30
2022-10-06T17:58:54.525Z,12.40
2022-10-06T18:09:18.438Z,12.00
2022-10-06T18:19:39.766Z,11.30
2022-10-06T18:30:13.387Z,11.00
2022-10-06T18:40:35.123Z,10.60
2022-10-06T18:51:02.028Z,10.60
2022-10-06T19:01:26.133Z,10.20
2022-10-06T19:11:52.118Z,10.10
2022-10-06T19:22:15.462Z,10.20
2022-10-06T19:32:38.503Z,10.00
2022-10-06T19:43:00.349Z,9.70
2022-10-06T19:53:23.456Z,9.90
2022-10-06T20:03:45.033Z,9.70
2022-10-06T20:14:11.855Z,9.60
2022-10-06T20:24:33.923Z,9.80
2022-10-06T20:34:58.006Z,9.50
2022-10-06T20:45:21.374Z,8.90
2022-10-06T20:56:01.782Z,9.50
2022-10-06T21:06:24.704Z,9.30
2022-10-06T21:16:49.867Z,9.20
2022-10-06T21:27:11.788Z,8.90
2022-10-06T21:37:35.279Z,8.50
2022-10-06T21:47:56.666Z,8.20
2022-10-06T21:58:19.927Z,7.90
2022-10-06T22:08:41.768Z,8.00
2022-10-06T22:19:07.343Z,7.90
2022-10-06T22:29:29.084Z,7.60
2022-10-06T22:39:52.083Z,7.60
2022-10-06T22:50:13.683Z,7.40
2022-10-06T23:00:37.593Z,7.40
2022-10-06T23:11:04.776Z,7.20
2022-10-06T23:21:28.160Z,6.70
2022-10-06T23:31:49.789Z,6.50
2022-10-06T23:42:13.540Z,6.70
2022-10-06T23:52:35.194Z,7.10
